Time;durP1;ratioP1;P1;durP2;ratioP2;P2;SDS_P1;SDS_P2;PMS_P1;PMS_P2;Temp;Humidity;BMP_temperature;BMP_pressure;BME280_temperature;BME280_humidity;BME280_pressure;Samples;Min_cycle;Max_cycle;Signal;HPM_P1;HPM_P2
2023/09/06 00:02:00;;;;;;;;;;;;;;;;;;6252647;28;20227;-72
2023/09/06 00:05:00;;;;;;;;;;;;;;;;;;6257485;28;20310;-72
2023/09/06 00:08:04;;;;;;;;;;;;;;;;;;6249280;28;20047;-72
2023/09/06 00:11:06;;;;;;;;;;;;;;;;;;6271075;28;20298;-72
2023/09/06 00:14:06;;;;;;;;;;;;;;;;;;6271644;28;20007;-71
2023/09/06 00:17:07;;;;;;;;;;;;;;;;;;6254753;28;19927;-71
2023/09/06 00:23:20;;;;;;;;;;;;;;;;;;6252048;28;19920;-72
2023/09/06 00:26:20;;;;;;;;;;;;;;;;;;6259064;28;19924;-72
2023/09/06 00:29:21;;;;;;;;;;;;;;;;;;6275524;28;19920;-72
2023/09/06 00:32:22;;;;;;;;;;;;;;;;;;6259204;28;19913;-72
2023/09/06 00:35:24;;;;;;;;;;;;;;;;;;6261006;28;19945;-72
2023/09/06 00:38:24;;;;;;;;;;;;;;;;;;6262421;28;20275;-72
2023/09/06 00:41:25;;;;;;;;;;;;;;;;;;6252977;28;19921;-71
2023/09/06 00:44:25;;;;;;;;;;;;;;;;;;6262369;28;19916;-72
2023/09/06 00:47:25;;;;;;;;;;;;;;;;;;6257076;28;19925;-73
2023/09/06 00:50:28;;;;;;;;;;;;;;;;;;6261192;28;20039;-70
2023/09/06 00:53:28;;;;;;;;;;;;;;;;;;6265877;28;20367;-72
2023/09/06 00:56:28;;;;;;;;;;;;;;;;;;6259469;28;19920;-72
2023/09/06 00:59:29;;;;;;;;;;;;;;;;;;6260426;28;20006;-72
2023/09/06 01:02:29;;;;;;;;;;;;;;;;;;6235647;28;19917;-72
2023/09/06 01:05:30;;;;;;;;;;;;;;;;;;6230514;28;19991;-72
2023/09/06 01:08:30;;;;;;;;;;;;;;;;;;6227212;28;19920;-73
2023/09/06 01:11:31;;;;;;;;;;;;;;;;;;6231209;28;19917;-73
2023/09/06 01:14:32;;;;;;;;;;;;;;;;;;6229583;28;19930;-72
2023/09/06 01:17:32;;;;;;;;;;;;;;;;;;6230086;28;20348;-72
2023/09/06 01:20:33;;;;;;;;;;;;;;;;;;6231052;28;20229;-73
2023/09/06 01:23:33;;;;;;;;;;;;;;;;;;6232462;28;19927;-72
2023/09/06 01:26:33;;;;;;;;;;;;;;;;;;6235119;28;20132;-72
2023/09/06 01:29:34;;;;;;;;;;;;;;;;;;6230781;28;19963;-72
2023/09/06 01:32:35;;;;;;;;;;;;;;;;;;6231173;28;19949;-73
2023/09/06 01:35:35;;;;;;;;;;;;;;;;;;6229350;28;19932;-72
2023/09/06 01:38:35;;;;;;;;;;;;;;;;;;6228956;28;20651;-73
2023/09/06 01:41:35;;;;;;;;;;;;;;;;;;6247363;28;19917;-73
2023/09/06 01:44:35;;;;;;;;;;;;;;;;;;6233891;28;19932;-73
2023/09/06 01:47:35;;;;;;;;;;;;;;;;;;6237307;28;20439;-73
2023/09/06 01:50:35;;;;;;;;;;;;;;;;;;6231047;28;19921;-73
2023/09/06 01:53:36;;;;;;;;;;;;;;;;;;6225716;28;20044;-73
2023/09/06 01:56:36;;;;;;;;;;;;;;;;;;6230336;28;19919;-73
2023/09/06 01:59:36;;;;;;;;;;;;;;;;;;6231011;28;19933;-73
2023/09/06 02:02:36;;;;;;;;;;;;;;;;;;6233181;28;19920;-73
2023/09/06 02:05:36;;;;;;;;;;;;;;;;;;6240414;28;19937;-73
2023/09/06 02:08:39;;;;;;;;;;;;;;;;;;6237161;28;19929;-73
2023/09/06 02:11:39;;;;;;;;;;;;;;;;;;6234641;28;19913;-73
2023/09/06 02:14:39;;;;;;;;;;;;;;;;;;6237364;28;20003;-73
2023/09/06 02:17:42;;;;;;;;;;;;;;;;;;6238108;28;20248;-73
2023/09/06 02:20:42;;;;;;;;;;;;;;;;;;6236917;28;19921;-73
2023/09/06 02:23:42;;;;;;;;;;;;;;;;;;6243355;28;20328;-72
2023/09/06 02:26:42;;;;;;;;;;;;;;;;;;6242024;28;20016;-73
2023/09/06 02:29:42;;;;;;;;;;;;;;;;;;6240835;28;19913;-73
2023/09/06 02:32:43;;;;;;;;;;;;;;;;;;6244853;28;19921;-73
2023/09/06 02:35:44;;;;;;;;;;;;;;;;;;6248412;28;20408;-73
2023/09/06 02:38:44;;;;;;;;;;;;;;;;;;6241226;28;19914;-74
2023/09/06 02:41:45;;;;;;;;;;;;;;;;;;6241020;28;19913;-73
2023/09/06 02:44:45;;;;;;;;;;;;;;;;;;6248823;28;20233;-73
2023/09/06 02:47:48;;;;;;;;;;;;;;;;;;6235208;28;19948;-73
2023/09/06 02:50:48;;;;;;;;;;;;;;;;;;6240680;28;19918;-73
2023/09/06 02:53:48;;;;;;;;;;;;;;;;;;6253735;28;20307;-73
2023/09/06 02:56:48;;;;;;;;;;;;;;;;;;6238429;28;19921;-73
2023/09/06 02:59:49;;;;;;;;;;;;;;;;;;6253746;28;19921;-73
2023/09/06 03:02:52;;;;;;;;;;;;;;;;;;6265369;28;19916;-73
2023/09/06 03:05:53;;;;;;;;;;;;;;;;;;6263048;28;19921;-73
2023/09/06 03:08:53;;;;;;;;;;;;;;;;;;6265829;28;19928;-73
2023/09/06 03:11:54;;;;;;;;;;;;;;;;;;6255983;28;19917;-73
2023/09/06 03:14:55;;;;;;;;;;;;;;;;;;6259873;28;19924;-73
2023/09/06 03:17:58;;;;;;;;;;;;;;;;;;6257174;28;19912;-73
2023/09/06 03:21:04;;;;;;;;;;;;;;;;;;6256578;28;19917;-73
2023/09/06 03:24:06;;;;;;;;;;;;;;;;;;6261788;28;21388;-73
2023/09/06 03:27:15;;;;;;;;;;;;;;;;;;6257406;28;20398;-73
2023/09/06 03:30:15;;;;;;;;;;;;;;;;;;6260146;28;19947;-72
2023/09/06 03:33:16;;;;;;;;;;;;;;;;;;6262813;28;20450;-72
2023/09/06 03:36:16;;;;;;;;;;;;;;;;;;6259152;28;19917;-73
2023/09/06 03:39:19;;;;;;;;;;;;;;;;;;6255056;28;20367;-73
2023/09/06 03:42:19;;;;;;;;;;;;;;;;;;6259721;28;20406;-72
2023/09/06 03:45:21;;;;;;;;;;;;;;;;;;6255663;28;20012;-73
2023/09/06 03:48:23;;;;;;;;;;;;;;;;;;6260221;28;19917;-73
2023/09/06 03:51:24;;;;;;;;;;;;;;;;;;6258441;28;19920;-73
2023/09/06 03:54:24;;;;;;;;;;;;;;;;;;6261041;28;19913;-72
2023/09/06 03:57:25;;;;;;;;;;;;;;;;;;6272143;28;19928;-74
2023/09/06 04:00:29;;;;;;;;;;;;;;;;;;6255431;28;19928;-73
2023/09/06 04:03:30;;;;;;;;;;;;;;;;;;6258284;28;20252;-73
2023/09/06 04:06:30;;;;;;;;;;;;;;;;;;6255083;28;20047;-73
2023/09/06 04:09:37;;;;;;;;;;;;;;;;;;6261456;28;19913;-73
2023/09/06 04:12:37;;;;;;;;;;;;;;;;;;6261020;28;20020;-72
2023/09/06 04:15:37;;;;;;;;;;;;;;;;;;6257421;28;19939;-73
2023/09/06 04:18:38;;;;;;;;;;;;;;;;;;6258446;28;19916;-73
2023/09/06 04:21:38;;;;;;;;;;;;;;;;;;6273670;28;19975;-73
2023/09/06 04:24:38;;;;;;;;;;;;;;;;;;6255073;28;19927;-73
2023/09/06 04:27:39;;;;;;;;;;;;;;;;;;6256877;28;20510;-72
2023/09/06 04:30:40;;;;;;;;;;;;;;;;;;6255311;28;20383;-72
2023/09/06 04:33:41;;;;;;;;;;;;;;;;;;6255482;28;19913;-73
2023/09/06 04:36:41;;;;;;;;;;;;;;;;;;6258748;28;19932;-73
2023/09/06 04:39:43;;;;;;;;;;;;;;;;;;6257436;28;19913;-74
2023/09/06 04:42:43;;;;;;;;;;;;;;;;;;6252761;28;19964;-72
2023/09/06 04:45:43;;;;;;;;;;;;;;;;;;6252347;28;20363;-73
2023/09/06 04:48:43;;;;;;;;;;;;;;;;;;6257778;28;19912;-72
2023/09/06 04:51:43;;;;;;;;;;;;;;;;;;6258469;28;19924;-73
2023/09/06 04:54:44;;;;;;;;;;;;;;;;;;6263012;28;20087;-72
2023/09/06 04:57:45;;;;;;;;;;;;;;;;;;6255261;28;20465;-73
2023/09/06 05:00:47;;;;;;;;;;;;;;;;;;6253238;28;19925;-74
2023/09/06 05:03:47;;;;;;;;;;;;;;;;;;6259819;28;19920;-73
2023/09/06 05:06:47;;;;;;;;;;;;;;;;;;6263537;28;20011;-72
2023/09/06 05:09:49;;;;;;;;;;;;;;;;;;6257122;28;19921;-73
2023/09/06 05:12:49;;;;;;;;;;;;;;;;;;6254479;28;20417;-73
2023/09/06 05:15:49;;;;;;;;;;;;;;;;;;6255004;28;19921;-73
2023/09/06 05:18:49;;;;;;;;;;;;;;;;;;6250513;28;19913;-73
2023/09/06 05:21:49;;;;;;;;;;;;;;;;;;6251841;28;20016;-73
2023/09/06 05:24:49;;;;;;;;;;;;;;;;;;6281968;28;19912;-73
2023/09/06 05:27:50;;;;;;;;;;;;;;;;;;6263386;28;20076;-73
2023/09/06 05:30:50;;;;;;;;;;;;;;;;;;6260469;28;20304;-72
2023/09/06 05:33:50;;;;;;;;;;;;;;;;;;6255354;28;19920;-72
2023/09/06 05:36:51;;;;;;;;;;;;;;;;;;6251015;28;19924;-72
2023/09/06 05:39:51;;;;;;;;;;;;;;;;;;6252212;28;19917;-72
2023/09/06 05:42:51;;;;;;;;;;;;;;;;;;6255021;28;19935;-72
2023/09/06 05:45:54;;;;;;;;;;;;;;;;;;6257294;28;19924;-77
2023/09/06 05:48:54;;;;;;;;;;;;;;;;;;6269722;28;19921;-84
2023/09/06 05:51:54;;;;;;;;;;;;;;;;;;6250767;28;19913;-84
2023/09/06 05:54:54;;;;;;;;;;;;;;;;;;6257499;28;19921;-84
2023/09/06 05:57:54;;;;;;;;;;;;;;;;;;6259669;28;19913;-83
2023/09/06 06:00:54;;;;;;;;;;;;;;;;;;6276010;28;19921;-84
2023/09/06 06:03:55;;;;;;;;;;;;;;;;;;6268675;28;19980;-83
2023/09/06 06:06:55;;;;;;;;;;;;;;;;;;6261357;28;19948;-84
2023/09/06 06:09:56;;;;;;;;;;;;;;;;;;6270735;28;20000;-84
2023/09/06 06:12:56;;;;;;;;;;;;;;;;;;6262820;28;20027;-83
2023/09/06 06:15:56;;;;;;;;;;;;;;;;;;6266673;28;20220;-83
2023/09/06 06:18:56;;;;;;;;;;;;;;;;;;6261846;28;19967;-83
2023/09/06 06:21:57;;;;;;;;;;;;;;;;;;6261508;28;20284;-83
2023/09/06 06:24:57;;;;;;;;;;;;;;;;;;6273218;28;20000;-84
2023/09/06 06:27:57;;;;;;;;;;;;;;;;;;6267707;28;19939;-83
2023/09/06 06:30:57;;;;;;;;;;;;;;;;;;6262600;28;19912;-83
2023/09/06 06:33:59;;;;;;;;;;;;;;;;;;6269171;28;19913;-84
2023/09/06 06:36:59;;;;;;;;;;;;;;;;;;6269744;28;19956;-84
2023/09/06 06:40:05;;;;;;;;;;;;;;;;;;6279078;28;20355;-84
2023/09/06 06:43:06;;;;;;;;;;;;;;;;;;6262962;28;19917;-82
2023/09/06 06:46:09;;;;;;;;;;;;;;;;;;6263394;28;19924;-80
2023/09/06 06:49:09;;;;;;;;;;;;;;;;;;6266552;28;20059;-80
2023/09/06 06:52:10;;;;;;;;;;;;;;;;;;6262269;28;19917;-80
2023/09/06 06:55:10;;;;;;;;;;;;;;;;;;6264336;28;19913;-79
2023/09/06 06:58:11;;;;;;;;;;;;;;;;;;6264701;28;19924;-79
2023/09/06 07:01:11;;;;;;;;;;;;;;;;;;6264387;28;19924;-79
2023/09/06 07:04:11;;;;;;;;;;;;;;;;;;6269003;28;19954;-80
2023/09/06 07:07:11;;;;;;;;;;;;;;;;;;6259700;28;20083;-78
2023/09/06 07:10:11;;;;;;;;;;;;;;;;;;6270367;28;19913;-77
2023/09/06 07:13:11;;;;;;;;;;;;;;;;;;6278708;28;19921;-82
2023/09/06 07:16:12;;;;;;;;;;;;;;;;;;6288215;28;19929;-80
2023/09/06 07:19:12;;;;;;;;;;;;;;;;;;6265447;28;19928;-78
2023/09/06 07:22:12;;;;;;;;;;;;;;;;;;6255627;28;20016;-78
2023/09/06 07:25:13;;;;;;;;;;;;;;;;;;6262128;28;20070;-78
2023/09/06 07:28:14;;;;;;;;;;;;;;;;;;6267536;28;19916;-78
2023/09/06 07:31:14;;;;;;;;;;;;;;;;;;6263511;28;20008;-76
2023/09/06 07:34:14;;;;;;;;;;;;;;;;;;6273549;28;19921;-78
2023/09/06 07:37:14;;;;;;;;;;;;;;;;;;6266636;28;19928;-79
2023/09/06 07:40:15;;;;;;;;;;;;;;;;;;6260971;28;19955;-79
2023/09/06 07:43:15;;;;;;;;;;;;;;;;;;6283606;28;19924;-79
2023/09/06 07:46:15;;;;;;;;;;;;;;;;;;6259777;28;20336;-79
2023/09/06 07:49:16;;;;;;;;;;;;;;;;;;6278410;28;19932;-80
2023/09/06 07:52:16;;;;;;;;;;;;;;;;;;6279407;28;19928;-78
2023/09/06 07:55:16;;;;;;;;;;;;;;;;;;6297976;28;19963;-78
2023/09/06 07:58:16;;;;;;;;;;;;;;;;;;6282037;28;20540;-78
2023/09/06 08:01:16;;;;;;;;;;;;;;;;;;6294709;28;19915;-79
2023/09/06 08:04:20;;;;;;;;;;;;;;;;;;6272188;28;19955;-78
2023/09/06 08:07:22;;;;;;;;;;;;;;;;;;6274126;28;19917;-78
2023/09/06 08:10:23;;;;;;;;;;;;;;;;;;6279580;28;19913;-78
2023/09/06 08:13:23;;;;;;;;;;;;;;;;;;6291150;28;19913;-79
2023/09/06 08:16:23;;;;;;;;;;;;;;;;;;6291009;28;19999;-78
2023/09/06 08:19:23;;;;;;;;;;;;;;;;;;6274918;28;19916;-77
2023/09/06 08:22:23;;;;;;;;;;;;;;;;;;6271552;28;19943;-78
2023/09/06 08:25:24;;;;;;;;;;;;;;;;;;6257157;28;19908;-78
2023/09/06 08:28:24;;;;;;;;;;;;;;;;;;6274279;28;20227;-78
2023/09/06 08:31:24;;;;;;;;;;;;;;;;;;6286959;28;19913;-78
2023/09/06 08:34:24;;;;;;;;;;;;;;;;;;6273325;28;19999;-78
2023/09/06 08:37:24;;;;;;;;;;;;;;;;;;6265883;28;19923;-78
2023/09/06 08:40:25;;;;;;;;;;;;;;;;;;6253021;28;19909;-78
2023/09/06 08:43:25;;;;;;;;;;;;;;;;;;6262844;28;19915;-78
2023/09/06 08:46:26;;;;;;;;;;;;;;;;;;6269813;28;19999;-78
2023/09/06 08:49:27;;;;;;;;;;;;;;;;;;6281944;28;19925;-78
2023/09/06 08:52:27;;;;;;;;;;;;;;;;;;6275345;28;20406;-79
2023/09/06 08:55:27;;;;;;;;;;;;;;;;;;6278769;28;19913;-78
2023/09/06 08:58:28;;;;;;;;;;;;;;;;;;6289584;28;19979;-78
2023/09/06 09:01:28;;;;;;;;;;;;;;;;;;6270209;28;19936;-78
2023/09/06 09:04:29;;;;;;;;;;;;;;;;;;6286292;28;19967;-78
2023/09/06 09:07:30;;;;;;;;;;;;;;;;;;6268547;28;19916;-78
2023/09/06 09:10:31;;;;;;;;;;;;;;;;;;6273973;28;20143;-79
2023/09/06 09:13:33;;;;;;;;;;;;;;;;;;6263126;28;19909;-79
2023/09/06 09:16:33;;;;;;;;;;;;;;;;;;6271054;28;20398;-79
2023/09/06 09:19:33;;;;;;;;;;;;;;;;;;6271438;28;19912;-79
2023/09/06 09:22:35;;;;;;;;;;;;;;;;;;6266758;28;19925;-77
2023/09/06 09:25:35;;;;;;;;;;;;;;;;;;6281229;28;20364;-78
2023/09/06 09:28:35;;;;;;;;;;;;;;;;;;6266363;28;19917;-78
2023/09/06 09:31:35;;;;;;;;;;;;;;;;;;6273280;28;20011;-78
2023/09/06 09:34:35;;;;;;;;;;;;;;;;;;6267082;28;19920;-79
2023/09/06 09:37:44;;;;;;;;;;;;;;;;;;6270801;28;19931;-77
2023/09/06 09:40:44;;;;;;;;;;;;;;;;;;6287530;28;19962;-79
2023/09/06 09:43:45;;;;;;;;;;;;;;;;;;6276613;28;19913;-80
2023/09/06 09:46:45;;;;;;;;;;;;;;;;;;6269060;28;20354;-79
2023/09/06 09:49:45;;;;;;;;;;;;;;;;;;6281858;28;19916;-78
2023/09/06 09:52:45;;;;;;;;;;;;;;;;;;6277093;28;19940;-79
2023/09/06 09:55:45;;;;;;;;;;;;;;;;;;6262589;28;19928;-78
2023/09/06 09:58:45;;;;;;;;;;;;;;;;;;6255491;28;21358;-78
2023/09/06 10:01:47;;;;;;;;;;;;;;;;;;6277752;28;19955;-79
2023/09/06 10:04:49;;;;;;;;;;;;;;;;;;6288496;28;19924;-80
2023/09/06 10:07:49;;;;;;;;;;;;;;;;;;6278850;28;20375;-79
2023/09/06 10:10:49;;;;;;;;;;;;;;;;;;6258167;28;19920;-78
2023/09/06 10:13:50;;;;;;;;;;;;;;;;;;6257064;28;19917;-80
2023/09/06 10:16:50;;;;;;;;;;;;;;;;;;6256700;28;19913;-79
2023/09/06 10:19:51;;;;;;;;;;;;;;;;;;6251326;28;19917;-79
2023/09/06 10:22:54;;;;;;;;;;;;;;;;;;6260899;28;19971;-78
2023/09/06 10:25:54;;;;;;;;;;;;;;;;;;6272109;28;19908;-79
2023/09/06 10:28:54;;;;;;;;;;;;;;;;;;6279653;28;19912;-77
2023/09/06 10:31:54;;;;;;;;;;;;;;;;;;6287139;28;19913;-79
2023/09/06 10:34:54;;;;;;;;;;;;;;;;;;6276938;28;20430;-78
2023/09/06 10:37:55;;;;;;;;;;;;;;;;;;6277933;28;19964;-78
2023/09/06 10:40:55;;;;;;;;;;;;;;;;;;6265953;28;19913;-78
2023/09/06 10:43:57;;;;;;;;;;;;;;;;;;6291311;28;19909;-79
2023/09/06 10:46:57;;;;;;;;;;;;;;;;;;6271926;28;19913;-78
2023/09/06 10:49:57;;;;;;;;;;;;;;;;;;6292999;28;19932;-78
2023/09/06 10:52:58;;;;;;;;;;;;;;;;;;6275493;28;19919;-77
2023/09/06 10:56:01;;;;;;;;;;;;;;;;;;6281707;28;19921;-78
2023/09/06 10:59:01;;;;;;;;;;;;;;;;;;6281267;28;19909;-80
2023/09/06 11:02:02;;;;;;;;;;;;;;;;;;6256149;28;19913;-78
2023/09/06 11:05:02;;;;;;;;;;;;;;;;;;6255480;28;19916;-79
2023/09/06 11:08:02;;;;;;;;;;;;;;;;;;6254112;28;19979;-79
2023/09/06 11:11:02;;;;;;;;;;;;;;;;;;6233403;28;19948;-78
2023/09/06 11:14:03;;;;;;;;;;;;;;;;;;6234284;28;19909;-79
2023/09/06 11:17:03;;;;;;;;;;;;;;;;;;6252971;28;20362;-79
2023/09/06 11:20:09;;;;;;;;;;;;;;;;;;6247861;28;19928;-80
2023/09/06 11:23:10;;;;;;;;;;;;;;;;;;6242572;28;19924;-79
2023/09/06 11:26:10;;;;;;;;;;;;;;;;;;6236554;28;20307;-80
2023/09/06 11:29:14;;;;;;;;;;;;;;;;;;6245548;28;20352;-79
2023/09/06 11:32:16;;;;;;;;;;;;;;;;;;6255546;28;19924;-78
2023/09/06 11:35:19;;;;;;;;;;;;;;;;;;6244441;28;19913;-79
2023/09/06 11:38:23;;;;;;;;;;;;;;;;;;6238122;28;19918;-84
2023/09/06 11:41:24;;;;;;;;;;;;;;;;;;6250724;28;19937;-78
2023/09/06 11:44:24;;;;;;;;;;;;;;;;;;6268778;28;19982;-79
2023/09/06 11:47:29;;;;;;;;;;;;;;;;;;6285326;28;19917;-79
2023/09/06 11:50:29;;;;;;;;;;;;;;;;;;6254840;28;19943;-79
2023/09/06 11:53:31;;;;;;;;;;;;;;;;;;6259829;28;19917;-79
2023/09/06 11:56:33;;;;;;;;;;;;;;;;;;6263882;28;19920;-77
2023/09/06 11:59:34;;;;;;;;;;;;;;;;;;6286519;28;19924;-78
2023/09/06 12:02:34;;;;;;;;;;;;;;;;;;6279008;28;19925;-80
2023/09/06 12:05:34;;;;;;;;;;;;;;;;;;6285960;28;19896;-78
2023/09/06 12:08:35;;;;;;;;;;;;;;;;;;6299734;28;19936;-79
2023/09/06 12:11:35;;;;;;;;;;;;;;;;;;6287890;28;19908;-79
2023/09/06 12:14:36;;;;;;;;;;;;;;;;;;6285096;28;19912;-82
2023/09/06 12:17:36;;;;;;;;;;;;;;;;;;6282398;28;19947;-79
2023/09/06 12:20:36;;;;;;;;;;;;;;;;;;6285780;28;20375;-82
2023/09/06 12:23:37;;;;;;;;;;;;;;;;;;6282514;28;20023;-82
2023/09/06 12:26:37;;;;;;;;;;;;;;;;;;6285097;28;19909;-82
2023/09/06 12:29:37;;;;;;;;;;;;;;;;;;6284211;28;19913;-83
2023/09/06 12:32:37;;;;;;;;;;;;;;;;;;6277854;28;19973;-83
2023/09/06 12:35:38;;;;;;;;;;;;;;;;;;6282762;28;20042;-82
2023/09/06 12:38:40;;;;;;;;;;;;;;;;;;6287256;28;19913;-82
2023/09/06 12:41:40;;;;;;;;;;;;;;;;;;6291310;28;19917;-80
2023/09/06 12:44:40;;;;;;;;;;;;;;;;;;6284050;28;20350;-83
2023/09/06 12:47:41;;;;;;;;;;;;;;;;;;6287792;28;19909;-82
2023/09/06 12:50:41;;;;;;;;;;;;;;;;;;6304988;28;19912;-83
2023/09/06 12:53:41;;;;;;;;;;;;;;;;;;6314168;28;19909;-80
2023/09/06 12:56:42;;;;;;;;;;;;;;;;;;6317397;28;19912;-82
2023/09/06 12:59:42;;;;;;;;;;;;;;;;;;6297627;28;19952;-84
2023/09/06 13:02:42;;;;;;;;;;;;;;;;;;6283954;28;19948;-83
2023/09/06 13:05:42;;;;;;;;;;;;;;;;;;6282201;28;20011;-83
2023/09/06 13:08:48;;;;;;;;;;;;;;;;;;6315549;28;19986;-83
2023/09/06 13:11:49;;;;;;;;;;;;;;;;;;6307689;28;20378;-82
2023/09/06 13:14:49;;;;;;;;;;;;;;;;;;6308470;28;19951;-82
2023/09/06 13:17:50;;;;;;;;;;;;;;;;;;6312305;28;19960;-83
2023/09/06 13:20:50;;;;;;;;;;;;;;;;;;6309985;28;20053;-82
2023/09/06 13:23:52;;;;;;;;;;;;;;;;;;6284815;28;19908;-81
2023/09/06 13:26:53;;;;;;;;;;;;;;;;;;6280660;28;19996;-81
2023/09/06 13:29:55;;;;;;;;;;;;;;;;;;6281190;28;19909;-81
2023/09/06 13:32:55;;;;;;;;;;;;;;;;;;6279430;28;19916;-81
2023/09/06 13:35:55;;;;;;;;;;;;;;;;;;6281076;28;19912;-84
2023/09/06 13:38:55;;;;;;;;;;;;;;;;;;6284845;28;19913;-80
2023/09/06 13:41:55;;;;;;;;;;;;;;;;;;6283943;28;19908;-80
2023/09/06 13:44:57;;;;;;;;;;;;;;;;;;6279889;28;20445;-82
2023/09/06 13:47:57;;;;;;;;;;;;;;;;;;6289689;28;19927;-81
2023/09/06 13:50:57;;;;;;;;;;;;;;;;;;6287509;28;19909;-80
2023/09/06 13:53:58;;;;;;;;;;;;;;;;;;6279187;28;20015;-80
2023/09/06 13:56:58;;;;;;;;;;;;;;;;;;6292630;28;20008;-81
2023/09/06 13:59:58;;;;;;;;;;;;;;;;;;6277146;28;19936;-82
2023/09/06 14:02:58;;;;;;;;;;;;;;;;;;6264379;28;19911;-80
2023/09/06 14:05:59;;;;;;;;;;;;;;;;;;6245351;28;20375;-83
2023/09/06 14:09:00;;;;;;;;;;;;;;;;;;6280021;28;19935;-80
2023/09/06 14:12:00;;;;;;;;;;;;;;;;;;6276596;28;19909;-81
2023/09/06 14:15:00;;;;;;;;;;;;;;;;;;6274868;28;19909;-84
2023/09/06 14:18:02;;;;;;;;;;;;;;;;;;6237664;28;19909;-83
2023/09/06 14:21:02;;;;;;;;;;;;;;;;;;6235049;28;20019;-83
2023/09/06 14:24:02;;;;;;;;;;;;;;;;;;6257267;28;20048;-83
2023/09/06 14:27:23;;;;;;;;;;;;;;;;;;6253350;28;19920;-83
2023/09/06 14:30:23;;;;;;;;;;;;;;;;;;6251820;28;19953;-82
2023/09/06 14:33:23;;;;;;;;;;;;;;;;;;6260250;28;19936;-80
2023/09/06 14:36:23;;;;;;;;;;;;;;;;;;6253671;28;19909;-82
2023/09/06 14:39:23;;;;;;;;;;;;;;;;;;6265179;28;19921;-82
2023/09/06 14:42:24;;;;;;;;;;;;;;;;;;6242549;28;19917;-82
2023/09/06 14:45:24;;;;;;;;;;;;;;;;;;6255335;28;19920;-83
2023/09/06 14:48:25;;;;;;;;;;;;;;;;;;6246781;28;19940;-83
2023/09/06 14:51:25;;;;;;;;;;;;;;;;;;6254391;28;20008;-80
2023/09/06 14:54:26;;;;;;;;;;;;;;;;;;6247045;28;19919;-80
2023/09/06 14:57:26;;;;;;;;;;;;;;;;;;6261278;28;20015;-81
2023/09/06 15:00:26;;;;;;;;;;;;;;;;;;6259637;28;19924;-80
2023/09/06 15:03:27;;;;;;;;;;;;;;;;;;6285776;28;19912;-79
2023/09/06 15:06:28;;;;;;;;;;;;;;;;;;6273136;28;19917;-81
2023/09/06 15:09:28;;;;;;;;;;;;;;;;;;6262977;28;19913;-80
2023/09/06 15:12:28;;;;;;;;;;;;;;;;;;6278793;28;20225;-80
2023/09/06 15:15:28;;;;;;;;;;;;;;;;;;6276506;28;19920;-82
2023/09/06 15:18:28;;;;;;;;;;;;;;;;;;6279957;28;20390;-81
2023/09/06 15:21:29;;;;;;;;;;;;;;;;;;6272847;28;19967;-81
2023/09/06 15:24:29;;;;;;;;;;;;;;;;;;5920727;28;10000396;-80
2023/09/06 15:27:29;;;;;;;;;;;;;;;;;;6269733;28;19925;-82
2023/09/06 15:30:29;;;;;;;;;;;;;;;;;;6269822;28;20370;-82
2023/09/06 15:33:30;;;;;;;;;;;;;;;;;;6276011;28;20426;-84
2023/09/06 15:36:31;;;;;;;;;;;;;;;;;;6273354;28;20295;-83
2023/09/06 15:39:31;;;;;;;;;;;;;;;;;;6272708;28;19952;-82
2023/09/06 15:42:32;;;;;;;;;;;;;;;;;;6265829;28;19917;-83
2023/09/06 15:45:32;;;;;;;;;;;;;;;;;;6265724;28;19917;-82
2023/09/06 15:48:33;;;;;;;;;;;;;;;;;;6269652;28;19943;-83
2023/09/06 15:51:33;;;;;;;;;;;;;;;;;;6272885;28;19913;-83
2023/09/06 15:54:34;;;;;;;;;;;;;;;;;;6267940;28;20086;-83
2023/09/06 15:57:34;;;;;;;;;;;;;;;;;;6271409;28;20434;-82
2023/09/06 16:00:34;;;;;;;;;;;;;;;;;;6283355;28;19925;-81
2023/09/06 16:03:34;;;;;;;;;;;;;;;;;;6274220;28;19900;-81
2023/09/06 16:06:35;;;;;;;;;;;;;;;;;;6311639;28;19999;-79
2023/09/06 16:09:37;;;;;;;;;;;;;;;;;;6281480;28;19956;-80
2023/09/06 16:12:37;;;;;;;;;;;;;;;;;;6283799;28;19919;-80
2023/09/06 16:15:37;;;;;;;;;;;;;;;;;;6265778;28;19920;-80
2023/09/06 16:18:38;;;;;;;;;;;;;;;;;;6258426;28;19917;-80
2023/09/06 16:21:38;;;;;;;;;;;;;;;;;;6257989;28;19916;-81
2023/09/06 16:24:38;;;;;;;;;;;;;;;;;;6252984;28;19968;-80
2023/09/06 16:27:38;;;;;;;;;;;;;;;;;;6260378;28;20010;-80
2023/09/06 16:30:38;;;;;;;;;;;;;;;;;;6258437;28;19913;-80
2023/09/06 16:33:38;;;;;;;;;;;;;;;;;;6284861;28;19924;-80
2023/09/06 16:36:39;;;;;;;;;;;;;;;;;;6267308;28;20356;-79
2023/09/06 16:39:43;;;;;;;;;;;;;;;;;;6285544;28;19916;-80
2023/09/06 16:42:43;;;;;;;;;;;;;;;;;;6260949;28;19921;-80
2023/09/06 16:45:43;;;;;;;;;;;;;;;;;;6297428;28;19988;-80
2023/09/06 16:48:43;;;;;;;;;;;;;;;;;;6291342;28;19923;-81
2023/09/06 16:51:43;;;;;;;;;;;;;;;;;;6268879;28;19913;-80
2023/09/06 16:54:45;;;;;;;;;;;;;;;;;;6259577;28;20287;-81
2023/09/06 16:57:46;;;;;;;;;;;;;;;;;;6256336;28;19927;-78
2023/09/06 17:00:46;;;;;;;;;;;;;;;;;;6224211;28;19924;-78
2023/09/06 17:03:46;;;;;;;;;;;;;;;;;;6236239;28;20533;-75
2023/09/06 17:06:46;;;;;;;;;;;;;;;;;;6240165;28;19929;-76
2023/09/06 17:09:47;;;;;;;;;;;;;;;;;;6242300;28;19998;-78
2023/09/06 17:12:49;;;;;;;;;;;;;;;;;;6250526;28;19921;-75
2023/09/06 17:15:50;;;;;;;;;;;;;;;;;;6238941;28;19968;-78
2023/09/06 17:18:50;;;;;;;;;;;;;;;;;;6251204;28;20059;-84
2023/09/06 17:21:51;;;;;;;;;;;;;;;;;;6247201;28;19925;-78
2023/09/06 17:24:51;;;;;;;;;;;;;;;;;;6244102;28;19921;-77
2023/09/06 17:27:53;;;;;;;;;;;;;;;;;;6237340;28;20447;-84
2023/09/06 17:30:56;;;;;;;;;;;;;;;;;;6229145;28;20337;-78
2023/09/06 17:33:57;;;;;;;;;;;;;;;;;;6230817;28;19929;-79
2023/09/06 17:36:57;;;;;;;;;;;;;;;;;;6251442;28;20000;-77
2023/09/06 17:39:57;;;;;;;;;;;;;;;;;;6230520;28;19932;-77
2023/09/06 17:42:58;;;;;;;;;;;;;;;;;;6233488;28;19927;-77
2023/09/06 17:46:01;;;;;;;;;;;;;;;;;;6243044;28;19917;-74
2023/09/06 17:49:08;;;;;;;;;;;;;;;;;;6228627;28;20390;-78
2023/09/06 17:52:10;;;;;;;;;;;;;;;;;;6231038;28;20300;-76
2023/09/06 17:55:13;;;;;;;;;;;;;;;;;;6240615;28;20102;-77
2023/09/06 17:58:16;;;;;;;;;;;;;;;;;;6233319;28;19939;-75
2023/09/06 18:01:18;;;;;;;;;;;;;;;;;;6248396;28;19933;-77
2023/09/06 18:04:22;;;;;;;;;;;;;;;;;;6242129;28;19921;-76
2023/09/06 18:07:23;;;;;;;;;;;;;;;;;;6262651;28;19935;-76
2023/09/06 18:10:24;;;;;;;;;;;;;;;;;;6243797;28;19921;-78
2023/09/06 18:13:26;;;;;;;;;;;;;;;;;;6250805;28;20604;-77
2023/09/06 18:16:29;;;;;;;;;;;;;;;;;;6242079;28;20374;-79
2023/09/06 18:19:30;;;;;;;;;;;;;;;;;;6246935;28;20073;-82
2023/09/06 18:22:31;;;;;;;;;;;;;;;;;;6252830;28;19953;-79
2023/09/06 18:25:31;;;;;;;;;;;;;;;;;;6268312;28;19965;-78
2023/09/06 18:28:34;;;;;;;;;;;;;;;;;;6267576;28;19972;-82
2023/09/06 18:31:36;;;;;;;;;;;;;;;;;;6260797;28;19927;-76
2023/09/06 18:34:36;;;;;;;;;;;;;;;;;;6261958;28;19920;-78
2023/09/06 18:37:37;;;;;;;;;;;;;;;;;;6249257;28;20380;-76
2023/09/06 18:40:37;;;;;;;;;;;;;;;;;;6242382;28;20419;-76
2023/09/06 18:43:38;;;;;;;;;;;;;;;;;;6245969;28;19921;-76
2023/09/06 18:46:38;;;;;;;;;;;;;;;;;;6246300;28;20038;-77
2023/09/06 18:49:39;;;;;;;;;;;;;;;;;;6249817;28;19921;-77
2023/09/06 18:52:40;;;;;;;;;;;;;;;;;;6241440;28;19927;-75
2023/09/06 18:55:43;;;;;;;;;;;;;;;;;;6250235;28;19921;-74
2023/09/06 18:58:45;;;;;;;;;;;;;;;;;;6233336;28;19928;-74
2023/09/06 19:01:45;;;;;;;;;;;;;;;;;;6244760;28;20368;-75
2023/09/06 19:04:45;;;;;;;;;;;;;;;;;;6237900;28;20299;-75
2023/09/06 19:07:47;;;;;;;;;;;;;;;;;;6249253;28;20032;-74
2023/09/06 19:10:47;;;;;;;;;;;;;;;;;;6237161;28;20107;-75
2023/09/06 19:13:47;;;;;;;;;;;;;;;;;;6237767;28;20032;-74
2023/09/06 19:16:47;;;;;;;;;;;;;;;;;;5906602;28;10000072;-74
2023/09/06 19:19:48;;;;;;;;;;;;;;;;;;6245919;28;20049;-75
2023/09/06 19:22:52;;;;;;;;;;;;;;;;;;6245576;28;19921;-74
2023/09/06 19:25:54;;;;;;;;;;;;;;;;;;6244962;28;19994;-76
2023/09/06 19:28:54;;;;;;;;;;;;;;;;;;6239213;28;20424;-72
2023/09/06 19:31:56;;;;;;;;;;;;;;;;;;6238140;28;19920;-72
2023/09/06 19:34:56;;;;;;;;;;;;;;;;;;6250059;28;21120;-74
2023/09/06 19:37:57;;;;;;;;;;;;;;;;;;6242993;28;19921;-74
2023/09/06 19:40:57;;;;;;;;;;;;;;;;;;6232304;28;19931;-75
2023/09/06 19:43:57;;;;;;;;;;;;;;;;;;6236191;28;19956;-76
2023/09/06 19:46:58;;;;;;;;;;;;;;;;;;6242100;28;19924;-74
2023/09/06 19:50:00;;;;;;;;;;;;;;;;;;6240562;28;19908;-72
2023/09/06 19:53:01;;;;;;;;;;;;;;;;;;6252250;28;20407;-75
2023/09/06 19:56:03;;;;;;;;;;;;;;;;;;6239121;28;19921;-74
2023/09/06 19:59:06;;;;;;;;;;;;;;;;;;6251114;28;19923;-73
2023/09/06 20:02:07;;;;;;;;;;;;;;;;;;6244679;28;19920;-74
2023/09/06 20:05:07;;;;;;;;;;;;;;;;;;6241771;28;21197;-76
2023/09/06 20:08:13;;;;;;;;;;;;;;;;;;6244896;28;19967;-72
2023/09/06 20:11:15;;;;;;;;;;;;;;;;;;6259328;28;19920;-75
2023/09/06 20:14:17;;;;;;;;;;;;;;;;;;6245705;28;19913;-75
2023/09/06 20:17:17;;;;;;;;;;;;;;;;;;6249223;28;19964;-74
2023/09/06 20:20:17;;;;;;;;;;;;;;;;;;6261841;28;19925;-75
2023/09/06 20:23:18;;;;;;;;;;;;;;;;;;6250417;28;19920;-76
2023/09/06 20:26:18;;;;;;;;;;;;;;;;;;6263707;28;20074;-75
2023/09/06 20:29:19;;;;;;;;;;;;;;;;;;6242142;28;19921;-74
2023/09/06 20:32:19;;;;;;;;;;;;;;;;;;6265464;28;19946;-75
2023/09/06 20:35:20;;;;;;;;;;;;;;;;;;6250024;28;19917;-75
2023/09/06 20:38:20;;;;;;;;;;;;;;;;;;6247549;28;19959;-75